createdAt,value
2019-01-20T00:00:38.692Z,89.37
2019-01-20T00:01:38.660Z,89.47
2019-01-20T00:02:38.648Z,90.00
2019-01-20T00:03:38.640Z,89.37
2019-01-20T00:04:38.648Z,89.89
2019-01-20T00:05:38.616Z,89.86
2019-01-20T00:06:38.623Z,89.26
2019-01-20T00:07:38.600Z,89.69
2019-01-20T00:08:38.583Z,89.47
2019-01-20T00:09:38.587Z,89.96
2019-01-20T00:10:38.585Z,89.96
2019-01-20T00:11:38.552Z,89.22
2019-01-20T00:12:38.558Z,90.00
2019-01-20T00:13:38.545Z,89.47
2019-01-20T00:14:38.528Z,90.00
2019-01-20T00:15:38.519Z,89.58
2019-01-20T00:16:38.521Z,90.00
2019-01-20T00:17:38.487Z,90.32
2019-01-20T00:18:38.489Z,90.06
2019-01-20T00:19:38.468Z,89.96
2019-01-20T00:20:38.456Z,89.86
2019-01-20T00:21:38.445Z,89.79
2019-01-20T00:22:38.463Z,89.64
2019-01-20T00:23:38.435Z,89.96
2019-01-20T00:24:38.417Z,90.00
2019-01-20T00:25:38.412Z,90.00
2019-01-20T00:26:38.387Z,89.58
2019-01-20T00:27:38.378Z,89.58
2019-01-20T00:28:38.384Z,89.64
2019-01-20T00:29:38.368Z,90.17
2019-01-20T00:30:38.344Z,90.21
2019-01-20T00:31:38.339Z,90.21
2019-01-20T00:32:38.323Z,90.21
2019-01-20T00:33:38.323Z,90.06
2019-01-20T00:34:38.323Z,90.21
2019-01-20T00:35:38.291Z,89.69
2019-01-20T00:36:38.281Z,89.79
2019-01-20T00:37:38.267Z,90.06
2019-01-20T00:38:38.271Z,90.28
2019-01-20T00:39:38.247Z,90.53
2019-01-20T00:40:38.279Z,90.32
2019-01-20T00:41:38.227Z,90.21
2019-01-20T00:42:38.215Z,89.75
2019-01-20T00:43:38.204Z,89.69
2019-01-20T00:44:38.211Z,90.21
2019-01-20T00:45:38.183Z,89.89
2019-01-20T00:46:38.187Z,90.28
2019-01-20T00:47:38.163Z,90.53
2019-01-20T00:48:38.147Z,90.32
2019-01-20T00:49:38.139Z,90.21
2019-01-20T00:50:38.140Z,90.32
2019-01-20T00:51:38.116Z,90.74
2019-01-20T00:52:38.160Z,90.42
2019-01-20T00:53:38.095Z,90.53
2019-01-20T00:54:38.083Z,90.64
2019-01-20T00:55:38.071Z,90.64
2019-01-20T00:56:38.063Z,90.11
2019-01-20T00:57:38.055Z,90.11
2019-01-20T00:58:38.075Z,90.42
2019-01-20T00:59:38.028Z,90.84
2019-01-20T01:00:38.019Z,90.95
2019-01-20T01:01:38.007Z,90.42
2019-01-20T01:02:38.000Z,90.64
2019-01-20T01:03:37.991Z,90.64
2019-01-20T01:04:37.999Z,90.84
2019-01-20T01:05:37.964Z,91.06
2019-01-20T01:06:37.955Z,90.84
2019-01-20T01:07:37.940Z,90.84
2019-01-20T01:08:37.931Z,90.74
2019-01-20T01:09:37.925Z,90.64
2019-01-20T01:10:37.928Z,90.74
2019-01-20T01:11:37.902Z,90.84
2019-01-20T01:12:37.888Z,90.64
2019-01-20T01:13:37.880Z,90.53
2019-01-20T01:14:37.889Z,90.95
2019-01-20T01:15:37.856Z,90.95
2019-01-20T01:16:37.863Z,91.06
2019-01-20T01:17:37.837Z,90.95
2019-01-20T01:18:37.827Z,90.84
2019-01-20T01:19:37.811Z,90.64
2019-01-20T01:20:37.817Z,91.16
2019-01-20T01:21:37.792Z,91.16
2019-01-20T01:22:37.792Z,91.06
2019-01-20T01:23:37.768Z,91.06
2019-01-20T01:24:37.763Z,91.16
2019-01-20T01:25:37.750Z,92.01
2019-01-20T01:26:37.754Z,92.01
2019-01-20T01:27:37.728Z,91.38
2019-01-20T01:28:37.728Z,91.59
2019-01-20T01:29:37.703Z,90.95
2019-01-20T01:30:37.701Z,91.13
2019-01-20T01:31:37.681Z,91.33
2019-01-20T01:32:37.681Z,91.06
2019-01-20T01:33:37.659Z,91.06
2019-01-20T01:34:37.668Z,90.74
2019-01-20T01:35:37.643Z,90.74
2019-01-20T01:36:37.628Z,90.42
2019-01-20T01:37:37.628Z,90.53
2019-01-20T01:38:37.616Z,90.00
2019-01-20T01:39:37.595Z,90.00
2019-01-20T01:40:37.611Z,89.58
2019-01-20T01:41:39.142Z,89.94
2019-01-20T01:42:37.589Z,89.62
2019-01-20T01:43:37.551Z,90.84
2019-01-20T01:44:37.539Z,90.47
2019-01-20T01:45:37.532Z,90.78
2019-01-20T01:46:37.516Z,90.25
2019-01-20T01:47:37.532Z,90.89
2019-01-20T01:48:37.500Z,90.99
2019-01-20T01:49:37.485Z,90.89
2019-01-20T01:50:37.479Z,90.15
2019-01-20T01:51:37.464Z,91.03
2019-01-20T01:52:37.453Z,90.25
2019-01-20T01:53:37.469Z,90.57
2019-01-20T01:54:37.433Z,90.93
2019-01-20T01:55:37.468Z,90.82
2019-01-20T01:56:37.415Z,91.14
2019-01-20T01:57:37.408Z,90.72
2019-01-20T01:58:37.389Z,91.03
2019-01-20T01:59:37.412Z,91.03
2019-01-20T02:00:37.363Z,90.93
2019-01-20T02:01:37.356Z,91.67
2019-01-20T02:02:37.347Z,91.99
2019-01-20T02:03:37.339Z,91.99
2019-01-20T02:04:37.336Z,91.67
2019-01-20T02:05:37.329Z,92.20
2019-01-20T02:06:37.303Z,91.88
2019-01-20T02:07:37.288Z,91.67
2019-01-20T02:08:37.286Z,91.67
2019-01-20T02:09:37.287Z,91.82
2019-01-20T02:10:37.255Z,92.35
2019-01-20T02:11:37.267Z,92.52
2019-01-20T02:12:37.238Z,92.41
2019-01-20T02:13:37.225Z,92.62
2019-01-20T02:14:37.219Z,92.73
2019-01-20T02:15:37.222Z,92.20
2019-01-20T02:16:37.195Z,92.52
2019-01-20T02:17:37.196Z,92.52
2019-01-20T02:18:37.175Z,92.73
2019-01-20T02:19:37.181Z,93.15
2019-01-20T02:20:37.149Z,93.51
2019-01-20T02:21:37.161Z,93.26
2019-01-20T02:22:37.129Z,92.66
2019-01-20T02:23:37.127Z,93.15
2019-01-20T02:24:37.107Z,93.19
2019-01-20T02:25:37.095Z,93.15
2019-01-20T02:26:37.088Z,93.37
2019-01-20T02:27:37.088Z,93.47
2019-01-20T02:28:37.068Z,93.41
2019-01-20T02:29:37.063Z,93.15
2019-01-20T02:30:37.039Z,92.94
2019-01-20T02:31:37.027Z,93.15
2019-01-20T02:32:37.017Z,92.83
2019-01-20T02:33:37.023Z,93.15
2019-01-20T02:34:36.995Z,93.15
2019-01-20T02:35:36.997Z,92.83
2019-01-20T02:36:36.991Z,93.19
2019-01-20T02:37:36.963Z,92.83
2019-01-20T02:38:36.953Z,92.62
2019-01-20T02:39:36.962Z,92.56
2019-01-20T02:40:36.928Z,92.88
2019-01-20T02:41:36.940Z,93.73
2019-01-20T02:42:36.908Z,92.77
2019-01-20T02:43:36.902Z,93.30
2019-01-20T02:44:36.888Z,92.77
2019-01-20T02:45:36.895Z,93.51
2019-01-20T02:46:36.878Z,93.09
2019-01-20T02:47:36.855Z,93.09
2019-01-20T02:48:36.844Z,92.45
2019-01-20T02:49:36.833Z,92.66
2019-01-20T02:50:36.821Z,92.45
2019-01-20T02:51:36.823Z,92.66
2019-01-20T02:52:36.812Z,91.82
2019-01-20T02:53:36.800Z,92.35
2019-01-20T02:54:36.780Z,92.88
2019-01-20T02:55:36.769Z,92.56
2019-01-20T02:56:36.762Z,93.19
2019-01-20T02:57:36.759Z,92.88
2019-01-20T02:58:36.763Z,92.98
2019-01-20T02:59:36.729Z,93.51
2019-01-20T03:00:36.716Z,93.51
2019-01-20T03:01:36.705Z,93.24
2019-01-20T03:02:36.696Z,93.30
2019-01-20T03:03:36.691Z,93.30
2019-01-20T03:04:36.684Z,93.93
2019-01-20T03:05:36.666Z,93.66
2019-01-20T03:06:36.647Z,93.83
2019-01-20T03:07:36.652Z,93.62
2019-01-20T03:08:36.629Z,93.51
2019-01-20T03:09:36.615Z,93.41
2019-01-20T03:10:36.625Z,93.77
2019-01-20T03:11:36.595Z,92.92
2019-01-20T03:12:36.590Z,92.98
2019-01-20T03:13:36.584Z,93.02
2019-01-20T03:14:36.565Z,93.13
2019-01-20T03:15:36.551Z,93.02
2019-01-20T03:16:36.551Z,94.09
2019-01-20T03:17:36.527Z,94.09
2019-01-20T03:18:36.536Z,93.87
2019-01-20T03:19:36.507Z,93.13
2019-01-20T03:20:36.497Z,93.34
2019-01-20T03:21:36.486Z,92.88
2019-01-20T03:22:36.487Z,93.44
2019-01-20T03:23:36.469Z,93.02
2019-01-20T03:24:36.462Z,93.02
2019-01-20T03:25:36.440Z,93.24
2019-01-20T03:26:36.432Z,93.77
2019-01-20T03:27:36.426Z,92.92
2019-01-20T03:28:36.419Z,93.55
2019-01-20T03:29:36.410Z,93.55
2019-01-20T03:30:36.389Z,93.55
2019-01-20T03:31:36.385Z,93.44
2019-01-20T03:32:36.366Z,93.34
2019-01-20T03:33:36.372Z,93.24
2019-01-20T03:34:36.375Z,93.55
2019-01-20T03:35:36.332Z,93.34
2019-01-20T03:36:36.323Z,93.34
2019-01-20T03:37:36.310Z,93.34
2019-01-20T03:38:36.307Z,93.02
2019-01-20T03:39:36.288Z,92.71
2019-01-20T03:40:36.307Z,92.39
2019-01-20T03:41:36.285Z,92.71
2019-01-20T03:42:36.256Z,92.92
2019-01-20T03:43:36.249Z,93.02
2019-01-20T03:44:36.238Z,92.60
2019-01-20T03:45:36.223Z,92.71
2019-01-20T03:46:36.248Z,92.71
2019-01-20T03:47:36.204Z,92.60
2019-01-20T03:48:36.195Z,92.71
2019-01-20T03:49:36.180Z,92.71
2019-01-20T03:50:36.175Z,93.02
2019-01-20T03:51:36.184Z,92.85
2019-01-20T03:52:36.163Z,92.85
2019-01-20T03:53:36.136Z,92.75
2019-01-20T03:54:36.133Z,92.81
2019-01-20T03:55:36.125Z,92.75
2019-01-20T03:56:36.109Z,93.28
2019-01-20T03:57:36.108Z,92.96
2019-01-20T03:58:36.101Z,93.02
2019-01-20T03:59:36.073Z,93.60
2019-01-20T04:00:36.064Z,93.80
2019-01-20T04:01:36.050Z,94.02
2019-01-20T04:02:36.042Z,93.60
2019-01-20T04:03:36.041Z,92.85
2019-01-20T04:04:36.059Z,93.38
2019-01-20T04:05:36.014Z,93.38
2019-01-20T04:06:35.997Z,93.17
2019-01-20T04:07:35.988Z,93.38
2019-01-20T04:08:35.982Z,93.38
2019-01-20T04:09:35.977Z,93.28
2019-01-20T04:10:35.971Z,93.07
2019-01-20T04:11:35.944Z,93.77
2019-01-20T04:12:35.934Z,93.91
2019-01-20T04:13:35.921Z,93.80
2019-01-20T04:14:35.909Z,93.91
2019-01-20T04:15:35.915Z,94.02
2019-01-20T04:16:35.902Z,93.80
2019-01-20T04:17:35.879Z,93.38
2019-01-20T04:18:35.869Z,93.49
2019-01-20T04:19:35.871Z,93.60
2019-01-20T04:20:35.845Z,93.80
2019-01-20T04:21:35.855Z,94.34
2019-01-20T04:22:35.842Z,93.49
2019-01-20T04:23:35.812Z,93.49
2019-01-20T04:24:35.803Z,93.49
2019-01-20T04:25:35.794Z,93.60
2019-01-20T04:26:35.779Z,93.28
2019-01-20T04:27:35.782Z,93.60
2019-01-20T04:28:35.787Z,93.80
2019-01-20T04:29:35.756Z,93.60
2019-01-20T04:30:35.738Z,93.60
2019-01-20T04:31:35.727Z,93.60
2019-01-20T04:32:35.723Z,94.13
2019-01-20T04:33:35.704Z,93.28
2019-01-20T04:34:35.706Z,93.49
2019-01-20T04:35:35.683Z,93.49
2019-01-20T04:36:35.672Z,93.60
2019-01-20T04:37:35.667Z,93.28
2019-01-20T04:38:35.660Z,93.17
2019-01-20T04:39:35.648Z,92.85
2019-01-20T04:40:35.649Z,92.75
2019-01-20T04:41:35.619Z,92.75
2019-01-20T04:42:35.607Z,93.07
2019-01-20T04:43:35.594Z,93.17
2019-01-20T04:44:35.595Z,92.96
2019-01-20T04:45:35.575Z,93.17
2019-01-20T04:46:35.583Z,93.38
2019-01-20T04:47:35.555Z,93.38
2019-01-20T04:48:35.543Z,93.60
2019-01-20T04:49:35.531Z,93.85
2019-01-20T04:50:35.553Z,93.17
2019-01-20T04:51:35.507Z,93.49
2019-01-20T04:52:35.526Z,93.28
2019-01-20T04:53:35.488Z,93.70
2019-01-20T04:54:35.474Z,93.49
2019-01-20T04:55:35.464Z,92.96
2019-01-20T04:56:35.464Z,93.07
2019-01-20T04:57:35.446Z,93.60
2019-01-20T04:58:35.447Z,93.91
2019-01-20T04:59:35.420Z,93.07
2019-01-20T05:00:35.411Z,93.07
2019-01-20T05:01:35.400Z,93.60
2019-01-20T05:02:35.409Z,93.38
2019-01-20T05:03:35.378Z,93.28
2019-01-20T05:04:35.374Z,93.11
2019-01-20T05:05:35.356Z,93.07
2019-01-20T05:06:35.347Z,92.79
2019-01-20T05:07:35.337Z,92.79
2019-01-20T05:08:35.340Z,92.85
2019-01-20T05:09:35.311Z,92.79
2019-01-20T05:10:35.319Z,93.32
2019-01-20T05:11:35.293Z,93.64
2019-01-20T05:12:37.730Z,93.43
2019-01-20T05:13:35.271Z,93.32
2019-01-20T05:14:35.274Z,92.79
2019-01-20T05:15:35.247Z,92.90
2019-01-20T05:16:35.254Z,93.21
2019-01-20T05:17:35.227Z,92.90
2019-01-20T05:18:35.215Z,94.06
2019-01-20T05:19:35.206Z,93.74
2019-01-20T05:20:35.237Z,94.06
2019-01-20T05:21:35.212Z,93.49
2019-01-20T05:22:35.187Z,93.53
2019-01-20T05:23:35.168Z,93.53
2019-01-20T05:24:35.150Z,93.85
2019-01-20T05:25:35.142Z,93.64
2019-01-20T05:26:35.158Z,94.06
2019-01-20T05:27:35.118Z,93.96
2019-01-20T05:28:35.119Z,93.85
2019-01-20T05:29:35.099Z,94.02
2019-01-20T05:30:35.086Z,94.06
2019-01-20T05:31:35.079Z,93.43
2019-01-20T05:32:35.080Z,93.60
2019-01-20T05:33:35.054Z,93.74
2019-01-20T05:34:35.061Z,93.64
2019-01-20T05:35:35.032Z,93.91
2019-01-20T05:36:35.030Z,93.74
2019-01-20T05:37:35.022Z,93.64
2019-01-20T05:38:35.002Z,93.64
2019-01-20T05:39:35.003Z,93.53
2019-01-20T05:40:34.987Z,93.74
2019-01-20T05:41:34.966Z,93.64
2019-01-20T05:42:34.954Z,93.32
2019-01-20T05:43:34.946Z,93.38
2019-01-20T05:44:34.936Z,93.74
2019-01-20T05:45:34.934Z,93.74
2019-01-20T05:46:34.930Z,93.96
2019-01-20T05:47:34.902Z,93.85
2019-01-20T05:48:34.892Z,94.17
2019-01-20T05:49:34.878Z,94.06
2019-01-20T05:50:34.882Z,93.96
2019-01-20T05:51:34.871Z,93.74
2019-01-20T05:52:34.871Z,93.00
2019-01-20T05:53:34.931Z,93.64
2019-01-20T05:54:34.826Z,93.85
2019-01-20T05:55:34.814Z,93.00
2019-01-20T05:56:34.806Z,92.68
2019-01-20T05:57:34.815Z,92.90
2019-01-20T05:58:34.795Z,92.90
2019-01-20T05:59:34.770Z,92.47
2019-01-20T06:00:34.759Z,92.72
2019-01-20T06:01:34.751Z,92.47
2019-01-20T06:02:34.742Z,92.47
2019-01-20T06:03:34.738Z,92.58
2019-01-20T06:04:34.726Z,92.79
2019-01-20T06:05:34.709Z,92.51
2019-01-20T06:06:34.714Z,92.90
2019-01-20T06:07:34.687Z,92.72
2019-01-20T06:08:34.686Z,93.15
2019-01-20T06:09:34.677Z,93.53
2019-01-20T06:10:34.675Z,93.64
2019-01-20T06:11:34.646Z,94.38
2019-01-20T06:12:34.630Z,93.74
2019-01-20T06:13:34.618Z,92.90
2019-01-20T06:14:34.626Z,93.36
2019-01-20T06:15:34.601Z,93.26
2019-01-20T06:16:34.602Z,92.90
2019-01-20T06:17:34.575Z,92.58
2019-01-20T06:18:34.566Z,92.79
2019-01-20T06:19:34.554Z,92.83
2019-01-20T06:20:34.554Z,92.83
2019-01-20T06:21:34.534Z,93.04
2019-01-20T06:22:34.531Z,92.83
2019-01-20T06:23:34.515Z,92.41
2019-01-20T06:24:34.498Z,93.04
2019-01-20T06:25:34.509Z,93.04
2019-01-20T06:26:34.506Z,93.26
2019-01-20T06:27:34.470Z,93.26
2019-01-20T06:28:34.470Z,93.04
2019-01-20T06:29:34.454Z,93.89
2019-01-20T06:30:34.434Z,93.26
2019-01-20T06:31:34.440Z,93.26
2019-01-20T06:32:34.414Z,93.36
2019-01-20T06:33:34.406Z,93.04
2019-01-20T06:34:34.403Z,93.15
2019-01-20T06:35:34.387Z,93.57
2019-01-20T06:36:34.379Z,93.68
2019-01-20T06:37:34.378Z,93.36
2019-01-20T06:38:34.351Z,93.47
2019-01-20T06:39:34.341Z,93.47
2019-01-20T06:40:34.350Z,93.68
2019-01-20T06:41:34.318Z,94.10
2019-01-20T06:42:34.306Z,92.98
2019-01-20T06:43:34.306Z,93.26
2019-01-20T06:44:34.282Z,93.62
2019-01-20T06:45:34.274Z,93.15
2019-01-20T06:46:34.271Z,93.47
2019-01-20T06:47:34.251Z,93.30
2019-01-20T06:48:34.248Z,92.98
2019-01-20T06:49:34.244Z,93.08
2019-01-20T06:50:34.218Z,92.62
2019-01-20T06:51:34.206Z,92.55
2019-01-20T06:52:34.210Z,93.08
2019-01-20T06:53:34.190Z,93.30
2019-01-20T06:54:34.189Z,92.94
2019-01-20T06:55:34.166Z,92.66
2019-01-20T06:56:34.158Z,93.40
2019-01-20T06:57:34.143Z,93.83
2019-01-20T06:58:34.142Z,93.72
2019-01-20T06:59:34.143Z,93.30
2019-01-20T07:00:34.111Z,93.40
2019-01-20T07:01:34.101Z,93.62
2019-01-20T07:02:34.098Z,94.04
2019-01-20T07:03:34.087Z,93.83
2019-01-20T07:04:34.086Z,93.72
2019-01-20T07:05:34.070Z,93.93
2019-01-20T07:06:34.047Z,94.04
2019-01-20T07:07:34.034Z,94.25
2019-01-20T07:08:34.027Z,93.62
2019-01-20T07:09:34.014Z,93.93
2019-01-20T07:10:34.042Z,93.62
2019-01-20T07:11:33.990Z,94.04
2019-01-20T07:12:33.998Z,94.04
2019-01-20T07:13:33.971Z,93.93
2019-01-20T07:14:33.959Z,94.25
2019-01-20T07:15:33.954Z,93.19
2019-01-20T07:16:33.970Z,93.40
2019-01-20T07:17:33.930Z,94.25
2019-01-20T07:18:33.918Z,94.36
2019-01-20T07:19:33.902Z,93.30
2019-01-20T07:20:33.896Z,93.51
2019-01-20T07:21:33.898Z,93.30
2019-01-20T07:22:33.903Z,93.51
2019-01-20T07:23:33.866Z,93.08
2019-01-20T07:24:33.851Z,93.83
2019-01-20T07:25:33.838Z,94.19
2019-01-20T07:26:33.830Z,94.15
2019-01-20T07:27:33.835Z,93.40
2019-01-20T07:28:33.822Z,93.72
2019-01-20T07:29:33.798Z,93.40
2019-01-20T07:30:33.786Z,93.93
2019-01-20T07:31:33.778Z,93.51
2019-01-20T07:32:33.772Z,93.62
2019-01-20T07:33:33.778Z,93.19
2019-01-20T07:34:33.757Z,94.25
2019-01-20T07:35:33.734Z,93.83
2019-01-20T07:36:33.722Z,93.62
2019-01-20T07:37:33.714Z,93.51
2019-01-20T07:38:33.698Z,93.72
2019-01-20T07:39:33.702Z,93.72
2019-01-20T07:40:33.698Z,93.93
2019-01-20T07:41:33.666Z,93.62
2019-01-20T07:42:33.701Z,93.83
2019-01-20T07:43:33.646Z,93.72
2019-01-20T07:44:33.634Z,94.15
2019-01-20T07:45:33.639Z,94.04
2019-01-20T07:46:33.630Z,93.83
2019-01-20T07:47:33.603Z,93.93
2019-01-20T07:48:33.590Z,94.25
2019-01-20T07:49:33.578Z,93.93
2019-01-20T07:50:33.591Z,93.83
2019-01-20T07:51:33.558Z,94.15
2019-01-20T07:52:33.562Z,93.83
2019-01-20T07:53:33.546Z,94.15
2019-01-20T07:54:33.526Z,93.93
2019-01-20T07:55:33.543Z,94.15
2019-01-20T07:56:33.514Z,94.15
2019-01-20T07:57:33.494Z,94.04
2019-01-20T07:58:33.540Z,93.79
2019-01-20T07:59:33.474Z,93.79
2019-01-20T08:00:33.466Z,93.79
2019-01-20T08:01:33.452Z,93.62
2019-01-20T08:02:33.443Z,93.79
2019-01-20T08:03:33.450Z,93.79
2019-01-20T08:04:33.434Z,93.79
2019-01-20T08:05:33.410Z,93.79
2019-01-20T08:06:33.402Z,93.68
2019-01-20T08:07:33.390Z,93.79
2019-01-20T08:08:33.375Z,93.64
2019-01-20T08:09:33.382Z,93.53
2019-01-20T08:10:33.375Z,94.21
2019-01-20T08:11:33.350Z,93.11
2019-01-20T08:12:33.332Z,93.00
2019-01-20T08:13:33.322Z,93.96
2019-01-20T08:14:33.310Z,94.17
2019-01-20T08:15:33.315Z,93.43
2019-01-20T08:16:33.298Z,93.85
2019-01-20T08:17:33.281Z,93.96
2019-01-20T08:18:33.266Z,93.43
2019-01-20T08:19:33.260Z,93.53
2019-01-20T08:20:33.250Z,93.96
2019-01-20T08:21:33.254Z,93.74
2019-01-20T08:22:33.233Z,93.11
2019-01-20T08:23:33.229Z,93.43
2019-01-20T08:24:33.206Z,93.28
2019-01-20T08:25:33.204Z,93.49
2019-01-20T08:26:33.197Z,92.85
2019-01-20T08:27:33.206Z,92.32
2019-01-20T08:28:33.174Z,92.43
2019-01-20T08:29:33.149Z,93.00
2019-01-20T08:30:33.142Z,92.85
2019-01-20T08:31:33.126Z,92.85
2019-01-20T08:32:33.125Z,92.54
2019-01-20T08:33:33.122Z,92.43
2019-01-20T08:34:33.133Z,92.85
2019-01-20T08:35:33.113Z,92.96
2019-01-20T08:36:33.074Z,93.13
2019-01-20T08:37:34.307Z,92.85
2019-01-20T08:38:33.053Z,92.54
2019-01-20T08:39:33.065Z,93.24
2019-01-20T08:40:33.047Z,93.02
2019-01-20T08:41:33.019Z,93.24
2019-01-20T08:42:33.004Z,93.24
2019-01-20T08:43:32.998Z,92.92
2019-01-20T08:44:32.985Z,93.13
2019-01-20T08:45:33.000Z,93.55
2019-01-20T08:46:33.002Z,93.44
2019-01-20T08:47:32.952Z,93.51
2019-01-20T08:48:32.941Z,93.09
2019-01-20T08:49:32.929Z,93.19
2019-01-20T08:50:32.921Z,93.41
2019-01-20T08:51:32.921Z,93.51
2019-01-20T08:52:32.905Z,92.98
2019-01-20T08:53:32.889Z,93.19
2019-01-20T08:54:32.877Z,93.37
2019-01-20T08:55:32.866Z,93.26
2019-01-20T08:56:32.919Z,93.26
2019-01-20T08:57:32.849Z,93.15
2019-01-20T08:58:32.870Z,93.15
2019-01-20T08:59:32.821Z,93.15
2019-01-20T09:00:32.809Z,93.79
2019-01-20T09:01:32.942Z,94.10
2019-01-20T09:02:32.793Z,92.83
2019-01-20T09:03:32.781Z,92.90
2019-01-20T09:04:32.790Z,92.69
2019-01-20T09:05:32.757Z,93.11
2019-01-20T09:06:32.746Z,93.11
2019-01-20T09:07:32.761Z,93.28
2019-01-20T09:08:32.733Z,93.28
2019-01-20T09:09:32.718Z,93.18
2019-01-20T09:10:32.717Z,93.38
2019-01-20T09:11:32.697Z,93.28
2019-01-20T09:12:32.686Z,93.02
2019-01-20T09:13:39.373Z,92.75
2019-01-20T09:14:33.661Z,93.13
2019-01-20T09:15:32.650Z,92.82
2019-01-20T09:16:32.657Z,92.39
2019-01-20T09:17:32.627Z,92.46
2019-01-20T09:18:32.617Z,92.35
2019-01-20T09:19:32.614Z,91.93
2019-01-20T09:20:32.593Z,91.19
2019-01-20T09:21:32.593Z,90.55
2019-01-20T09:22:32.593Z,90.98
2019-01-20T09:23:32.561Z,90.13
2019-01-20T09:24:32.562Z,90.41
2019-01-20T09:25:32.541Z,90.30
2019-01-20T09:26:32.527Z,90.09
2019-01-20T09:27:32.517Z,90.52
2019-01-20T09:28:32.538Z,90.83
2019-01-20T09:29:32.502Z,91.11
2019-01-20T09:30:32.507Z,93.96
2019-01-20T09:31:32.476Z,94.29
2019-01-20T09:32:32.481Z,96.04
2019-01-20T09:33:32.453Z,95.26
2019-01-20T09:34:32.456Z,96.48
2019-01-20T09:35:32.432Z,96.55
2019-01-20T09:36:32.433Z,97.13
2019-01-20T09:37:32.408Z,94.71
2019-01-20T09:38:32.400Z,95.68
2019-01-20T09:39:32.392Z,93.57
2019-01-20T09:40:32.388Z,90.17
2019-01-20T09:41:32.378Z,90.27
2019-01-20T09:42:32.355Z,91.39
2019-01-20T09:43:32.348Z,86.72
2019-01-20T09:44:32.332Z,88.62
2019-01-20T09:45:32.320Z,88.26
2019-01-20T09:46:32.339Z,86.06
2019-01-20T09:47:32.299Z,82.59
2019-01-20T09:48:32.288Z,84.27
2019-01-20T09:49:32.280Z,79.66
2019-01-20T09:50:32.268Z,81.54
2019-01-20T09:51:32.264Z,83.12
2019-01-20T09:52:32.296Z,79.97
2019-01-20T09:53:32.233Z,78.61
2019-01-20T09:54:32.224Z,78.39
2019-01-20T09:55:32.212Z,79.97
2019-01-20T09:56:32.200Z,79.34
2019-01-20T09:57:32.189Z,78.71
2019-01-20T09:58:32.212Z,79.13
2019-01-20T09:59:32.168Z,79.27
2019-01-20T10:00:32.156Z,79.58
2019-01-20T10:01:32.150Z,80.11
2019-01-20T10:02:32.140Z,80.22
2019-01-20T10:03:32.127Z,80.11
2019-01-20T10:04:32.140Z,80.71
2019-01-20T10:05:32.107Z,80.32
2019-01-20T10:06:32.096Z,78.96
2019-01-20T10:07:32.100Z,80.43
2019-01-20T10:08:32.068Z,80.43
2019-01-20T10:09:32.081Z,80.43
2019-01-20T10:10:32.088Z,81.48
2019-01-20T10:11:32.035Z,80.74
2019-01-20T10:12:32.024Z,79.58
2019-01-20T10:13:32.012Z,79.58
2019-01-20T10:14:32.004Z,79.66
2019-01-20T10:15:32.008Z,79.48
2019-01-20T10:16:31.988Z,79.86
2019-01-20T10:17:31.968Z,79.24
2019-01-20T10:18:31.960Z,79.97
2019-01-20T10:19:31.949Z,79.44
2019-01-20T10:20:31.952Z,79.72
2019-01-20T10:21:31.928Z,79.93
2019-01-20T10:22:31.924Z,79.41
2019-01-20T10:23:31.913Z,77.73
2019-01-20T10:24:31.896Z,77.62
2019-01-20T10:25:31.884Z,78.15
2019-01-20T10:26:31.887Z,77.48
2019-01-20T10:27:31.901Z,77.52
2019-01-20T10:28:31.874Z,78.64
2019-01-20T10:29:31.839Z,78.53
2019-01-20T10:30:31.829Z,77.59
2019-01-20T10:31:31.820Z,77.59
2019-01-20T10:32:31.823Z,76.54
2019-01-20T10:33:31.799Z,76.02
2019-01-20T10:34:31.800Z,76.75
2019-01-20T10:35:31.775Z,76.65
2019-01-20T10:36:33.178Z,77.17
2019-01-20T10:37:31.769Z,76.82
2019-01-20T10:38:31.773Z,76.02
2019-01-20T10:39:31.731Z,77.76
2019-01-20T10:40:32.325Z,77.56
2019-01-20T10:41:31.708Z,76.82
2019-01-20T10:42:31.767Z,76.47
2019-01-20T10:43:31.693Z,76.68
2019-01-20T10:44:31.679Z,76.89
2019-01-20T10:45:31.667Z,76.02
2019-01-20T10:46:31.675Z,76.65
2019-01-20T10:47:31.647Z,75.35
2019-01-20T10:48:31.683Z,76.09
2019-01-20T10:49:31.652Z,73.68
2019-01-20T10:50:31.607Z,75.04
2019-01-20T10:51:31.615Z,74.80
2019-01-20T10:52:31.601Z,75.01
2019-01-20T10:53:31.616Z,71.97
2019-01-20T10:54:31.591Z,75.63
2019-01-20T10:55:31.579Z,76.47
2019-01-20T10:56:31.556Z,73.61
2019-01-20T10:57:31.532Z,76.54
2019-01-20T10:58:31.519Z,78.28
2019-01-20T10:59:31.524Z,79.61
2019-01-20T11:00:31.497Z,76.12
2019-01-20T11:01:31.499Z,78.18
2019-01-20T11:02:31.476Z,74.07
2019-01-20T11:03:31.463Z,75.36
2019-01-20T11:04:31.454Z,68.93
2019-01-20T11:05:32.787Z,71.19
2019-01-20T11:06:31.440Z,70.25
2019-01-20T11:07:31.444Z,68.87
2019-01-20T11:08:31.407Z,69.67
2019-01-20T11:09:31.399Z,66.13
2019-01-20T11:10:31.388Z,65.50
2019-01-20T11:11:31.392Z,69.87
2019-01-20T11:12:31.371Z,67.03
2019-01-20T11:13:31.375Z,63.49
2019-01-20T11:14:31.339Z,65.78
2019-01-20T11:15:31.335Z,64.12
2019-01-20T11:16:31.364Z,69.84
2019-01-20T11:17:31.315Z,67.29
2019-01-20T11:18:31.297Z,68.84
2019-01-20T11:19:31.299Z,66.50
2019-01-20T11:20:31.279Z,59.43
2019-01-20T11:21:31.263Z,63.38
2019-01-20T11:22:31.254Z,60.91
2019-01-20T11:23:31.251Z,60.50
2019-01-20T11:24:31.263Z,65.38
2019-01-20T11:25:31.219Z,65.66
2019-01-20T11:26:31.207Z,64.42
2019-01-20T11:27:31.204Z,60.68
2019-01-20T11:28:31.185Z,64.21
2019-01-20T11:29:31.172Z,60.13
2019-01-20T11:30:31.194Z,62.10
2019-01-20T11:31:31.152Z,63.45
2019-01-20T11:32:31.145Z,65.06
2019-01-20T11:33:31.132Z,59.22
2019-01-20T11:34:31.116Z,59.11
2019-01-20T11:35:31.131Z,58.67
2019-01-20T11:36:31.123Z,57.35
2019-01-20T11:37:31.083Z,59.97
2019-01-20T11:38:31.071Z,56.76
2019-01-20T11:39:31.063Z,56.88
2019-01-20T11:40:31.059Z,63.21
2019-01-20T11:41:31.049Z,60.70
2019-01-20T11:42:31.071Z,61.01
2019-01-20T11:43:31.015Z,59.61
2019-01-20T11:44:31.011Z,62.71
2019-01-20T11:45:30.995Z,56.08
2019-01-20T11:46:30.983Z,55.58
2019-01-20T11:47:30.983Z,58.00
2019-01-20T11:48:30.999Z,56.99
2019-01-20T11:49:30.953Z,58.57
2019-01-20T11:50:30.939Z,58.36
2019-01-20T11:51:30.927Z,61.58
2019-01-20T11:52:30.915Z,60.10
2019-01-20T11:53:30.908Z,58.23
2019-01-20T11:54:30.948Z,60.57
2019-01-20T11:55:30.883Z,56.73
2019-01-20T11:56:30.871Z,57.48
2019-01-20T11:57:30.859Z,62.92
2019-01-20T11:58:30.874Z,56.93
2019-01-20T11:59:30.839Z,56.76
2019-01-20T12:00:30.855Z,58.00
2019-01-20T12:01:30.815Z,58.11
2019-01-20T12:02:30.803Z,58.31
2019-01-20T12:03:30.796Z,56.86
2019-01-20T12:04:30.789Z,57.69
2019-01-20T12:05:30.808Z,55.12
2019-01-20T12:06:30.760Z,55.56
2019-01-20T12:07:30.747Z,58.60
2019-01-20T12:08:30.983Z,62.59
2019-01-20T12:09:30.725Z,63.19
2019-01-20T12:10:30.751Z,59.32
2019-01-20T12:11:30.739Z,56.83
2019-01-20T12:12:30.691Z,59.81
2019-01-20T12:13:30.679Z,59.34
2019-01-20T12:14:30.672Z,56.73
2019-01-20T12:15:30.659Z,53.31
2019-01-20T12:16:30.663Z,54.68
2019-01-20T12:17:30.651Z,58.00
2019-01-20T12:18:30.623Z,56.44
2019-01-20T12:19:30.618Z,53.62
2019-01-20T12:20:30.647Z,53.85
2019-01-20T12:21:30.609Z,54.29
2019-01-20T12:22:30.603Z,52.43
2019-01-20T12:23:30.578Z,50.82
2019-01-20T12:24:30.563Z,53.96
2019-01-20T12:25:30.549Z,53.96
2019-01-20T12:26:30.535Z,55.10
2019-01-20T12:27:30.536Z,54.75
2019-01-20T12:28:30.528Z,52.71
2019-01-20T12:29:30.504Z,57.38
2019-01-20T12:30:30.495Z,53.33
2019-01-20T12:31:30.483Z,53.44
2019-01-20T12:32:30.499Z,52.62
2019-01-20T12:33:30.463Z,53.06
2019-01-20T12:34:31.957Z,54.94
2019-01-20T12:35:30.436Z,56.65
2019-01-20T12:36:30.424Z,52.71
2019-01-20T12:37:30.411Z,53.12
2019-01-20T12:38:30.425Z,53.54
2019-01-20T12:39:30.395Z,52.58
2019-01-20T12:40:30.402Z,55.48
2019-01-20T12:41:30.373Z,53.15
2019-01-20T12:42:30.359Z,51.00
2019-01-20T12:43:30.343Z,52.27
2019-01-20T12:44:31.552Z,52.37
2019-01-20T12:45:30.327Z,53.02
2019-01-20T12:46:30.347Z,51.78
2019-01-20T12:47:30.299Z,51.36
2019-01-20T12:48:30.287Z,51.90
2019-01-20T12:49:30.279Z,52.03
2019-01-20T12:50:30.282Z,52.75
2019-01-20T12:51:30.268Z,52.44
2019-01-20T12:52:30.263Z,51.84